logo
Rechercher aéroport 
image banner adimage banner adimage banner ad
image banner ad

2CN7 - Qualcomm Building N

Situé à San Diego, United States

ICAO - 2CN7, IATA -

Données fournies par Airmate  

Information générale

Coordonnées: N32°53'46" W117°11'46"
Élévation : 486 feet MSL.
 
Voir autres Aéroports à California

Données opérationnelles

Special qualification required
Heure actuelle UTC:
Heure actuelle locale:
Météo à : KNKX - Miramar Mcas ( 6 km )
METAR: KNKX 281304Z 00000KT 10SM SCT005 17/15 A2990 RMK AO2 VIS W 1 T01670150
TAF: TAF KNKX 2809/2909 VRB05KT 9999 FEW030 FEW200 QNH2987 BECMG 2809/2811 VRB05KT 9000 BR BKN005 QNH2989INS TEMPO 2810/2815 6000 BR OVC002 FM281630 25007KT 9999 SCT020 QNH2989INS T18/2815Z T32/2820Z
Voir NOTAMs / SUP AIP / TFR affectant cet aéroport [VIEW]
Fréquences de communication: [VIEW]

Pistes:

Coordonnées de l'aéroport

Adresse: San Diego United States

Vue satellite de 2CN7